sensor_id;sensor_type;location;lat;lon;timestamp;pressure;altitude;pressure_sealevel;temperature;humidity
56671;BME280;42545;50.054;8.306;2023-02-21T00:01:46;100463.19;;;4.23;96.18
56671;BME280;42545;50.054;8.306;2023-02-21T00:04:32;100473.56;;;4.21;96.76
56671;BME280;42545;50.054;8.306;2023-02-21T00:07:16;100467.28;;;4.18;96.86
56671;BME280;42545;50.054;8.306;2023-02-21T00:10:03;100474.25;;;4.17;97.23
56671;BME280;42545;50.054;8.306;2023-02-21T00:12:47;100465.00;;;4.24;98.10
56671;BME280;42545;50.054;8.306;2023-02-21T00:15:31;100465.88;;;4.24;97.75
56671;BME280;42545;50.054;8.306;2023-02-21T00:18:15;100465.72;;;4.21;97.49
56671;BME280;42545;50.054;8.306;2023-02-21T00:20:59;100454.25;;;4.18;97.71
56671;BME280;42545;50.054;8.306;2023-02-21T00:23:43;100459.25;;;4.13;96.60
56671;BME280;42545;50.054;8.306;2023-02-21T00:26:29;100447.16;;;3.97;96.46
56671;BME280;42545;50.054;8.306;2023-02-21T00:29:13;100448.34;;;3.86;96.48
56671;BME280;42545;50.054;8.306;2023-02-21T00:31:56;100446.09;;;3.76;97.16
56671;BME280;42545;50.054;8.306;2023-02-21T00:34:41;100446.47;;;3.65;97.60
56671;BME280;42545;50.054;8.306;2023-02-21T00:37:25;100441.09;;;3.62;98.13
56671;BME280;42545;50.054;8.306;2023-02-21T00:40:10;100445.16;;;3.57;98.08
56671;BME280;42545;50.054;8.306;2023-02-21T00:42:57;100436.22;;;3.52;98.57
56671;BME280;42545;50.054;8.306;2023-02-21T00:45:42;100443.72;;;3.46;98.71
56671;BME280;42545;50.054;8.306;2023-02-21T00:48:26;100440.00;;;3.41;99.01
56671;BME280;42545;50.054;8.306;2023-02-21T00:51:10;100441.63;;;3.39;99.75
56671;BME280;42545;50.054;8.306;2023-02-21T00:53:54;100446.75;;;3.37;99.92
56671;BME280;42545;50.054;8.306;2023-02-21T00:56:39;100445.78;;;3.35;100.00
56671;BME280;42545;50.054;8.306;2023-02-21T00:59:24;100443.94;;;3.33;100.00
56671;BME280;42545;50.054;8.306;2023-02-21T01:02:08;100443.84;;;3.31;100.00
56671;BME280;42545;50.054;8.306;2023-02-21T01:04:53;100441.16;;;3.30;100.00
56671;BME280;42545;50.054;8.306;2023-02-21T01:07:37;100440.94;;;3.25;100.00
56671;BME280;42545;50.054;8.306;2023-02-21T01:10:22;100450.44;;;3.24;100.00
56671;BME280;42545;50.054;8.306;2023-02-21T01:13:06;100447.72;;;3.21;100.00
56671;BME280;42545;50.054;8.306;2023-02-21T01:15:52;100452.91;;;3.21;100.00
56671;BME280;42545;50.054;8.306;2023-02-21T01:18:36;100449.25;;;3.18;100.00
56671;BME280;42545;50.054;8.306;2023-02-21T01:21:20;100450.06;;;3.17;100.00
56671;BME280;42545;50.054;8.306;2023-02-21T01:24:10;100449.88;;;3.14;100.00
56671;BME280;42545;50.054;8.306;2023-02-21T01:26:54;100455.84;;;3.11;100.00
56671;BME280;42545;50.054;8.306;2023-02-21T01:29:38;100460.25;;;3.12;100.00
56671;BME280;42545;50.054;8.306;2023-02-21T01:32:24;100471.88;;;3.19;100.00
56671;BME280;42545;50.054;8.306;2023-02-21T01:35:09;100471.31;;;3.24;100.00
56671;BME280;42545;50.054;8.306;2023-02-21T01:37:53;100467.03;;;3.25;100.00
56671;BME280;42545;50.054;8.306;2023-02-21T01:40:37;100466.09;;;3.24;100.00
56671;BME280;42545;50.054;8.306;2023-02-21T01:43:22;100466.19;;;3.26;100.00
56671;BME280;42545;50.054;8.306;2023-02-21T01:46:07;100469.63;;;3.25;100.00
56671;BME280;42545;50.054;8.306;2023-02-21T01:48:55;100445.81;;;3.19;100.00
56671;BME280;42545;50.054;8.306;2023-02-21T01:51:41;100443.03;;;3.16;100.00
56671;BME280;42545;50.054;8.306;2023-02-21T01:54:29;100437.50;;;3.10;100.00
56671;BME280;42545;50.054;8.306;2023-02-21T01:57:15;100425.81;;;3.01;100.00
56671;BME280;42545;50.054;8.306;2023-02-21T02:00:03;100437.84;;;2.99;100.00
56671;BME280;42545;50.054;8.306;2023-02-21T02:02:52;100441.94;;;2.94;100.00
56671;BME280;42545;50.054;8.306;2023-02-21T02:05:40;100435.56;;;2.89;100.00
56671;BME280;42545;50.054;8.306;2023-02-21T02:08:30;100439.25;;;2.76;100.00
56671;BME280;42545;50.054;8.306;2023-02-21T02:11:23;100439.44;;;2.64;100.00
56671;BME280;42545;50.054;8.306;2023-02-21T02:14:23;100433.59;;;2.52;100.00
56671;BME280;42545;50.054;8.306;2023-02-21T02:17:00;100436.91;;;2.49;100.00
56671;BME280;42545;50.054;8.306;2023-02-21T02:19:48;100428.88;;;2.45;100.00
56671;BME280;42545;50.054;8.306;2023-02-21T02:22:34;100429.44;;;2.39;100.00
56671;BME280;42545;50.054;8.306;2023-02-21T02:25:14;100431.13;;;2.39;100.00
56671;BME280;42545;50.054;8.306;2023-02-21T02:27:59;100431.03;;;2.37;100.00
56671;BME280;42545;50.054;8.306;2023-02-21T02:30:57;100419.31;;;2.29;100.00
56671;BME280;42545;50.054;8.306;2023-02-21T02:33:59;100423.63;;;2.28;100.00
56671;BME280;42545;50.054;8.306;2023-02-21T02:36:39;100423.53;;;2.27;100.00
56671;BME280;42545;50.054;8.306;2023-02-21T02:39:17;100430.47;;;2.26;100.00
56671;BME280;42545;50.054;8.306;2023-02-21T02:41:52;100427.84;;;2.26;100.00
56671;BME280;42545;50.054;8.306;2023-02-21T02:44:27;100426.22;;;2.28;100.00
56671;BME280;42545;50.054;8.306;2023-02-21T02:46:58;100433.13;;;2.28;100.00
56671;BME280;42545;50.054;8.306;2023-02-21T02:49:27;100430.69;;;2.31;100.00
56671;BME280;42545;50.054;8.306;2023-02-21T02:52:02;100431.34;;;2.27;100.00
56671;BME280;42545;50.054;8.306;2023-02-21T02:54:29;100435.09;;;2.32;100.00
56671;BME280;42545;50.054;8.306;2023-02-21T02:56:56;100431.59;;;2.31;100.00
56671;BME280;42545;50.054;8.306;2023-02-21T02:59:26;100420.75;;;2.24;100.00
56671;BME280;42545;50.054;8.306;2023-02-21T03:02:14;100422.47;;;2.23;100.00
56671;BME280;42545;50.054;8.306;2023-02-21T03:05:01;100430.97;;;2.21;100.00
56671;BME280;42545;50.054;8.306;2023-02-21T03:07:40;100429.91;;;2.17;100.00
56671;BME280;42545;50.054;8.306;2023-02-21T03:10:17;100424.72;;;2.17;100.00
56671;BME280;42545;50.054;8.306;2023-02-21T03:12:50;100416.56;;;2.11;100.00
56671;BME280;42545;50.054;8.306;2023-02-21T03:15:23;100434.09;;;2.14;100.00
56671;BME280;42545;50.054;8.306;2023-02-21T03:17:55;100425.91;;;2.07;100.00
56671;BME280;42545;50.054;8.306;2023-02-21T03:20:23;100428.50;;;2.07;100.00
56671;BME280;42545;50.054;8.306;2023-02-21T03:22:54;100437.06;;;2.05;100.00
56671;BME280;42545;50.054;8.306;2023-02-21T03:25:23;100435.25;;;2.04;100.00
56671;BME280;42545;50.054;8.306;2023-02-21T03:27:51;100437.06;;;2.05;100.00
56671;BME280;42545;50.054;8.306;2023-02-21T03:30:19;100428.09;;;2.00;100.00
56671;BME280;42545;50.054;8.306;2023-02-21T03:32:48;100435.06;;;2.01;100.00
56671;BME280;42545;50.054;8.306;2023-02-21T03:35:16;100428.09;;;2.00;100.00
56671;BME280;42545;50.054;8.306;2023-02-21T03:37:47;100426.28;;;1.99;100.00
56671;BME280;42545;50.054;8.306;2023-02-21T03:40:20;100420.47;;;2.03;100.00
56671;BME280;42545;50.054;8.306;2023-02-21T03:42:48;100421.34;;;2.03;100.00
56671;BME280;42545;50.054;8.306;2023-02-21T03:45:15;100425.69;;;2.03;100.00
56671;BME280;42545;50.054;8.306;2023-02-21T03:47:44;100423.13;;;2.04;100.00
56671;BME280;42545;50.054;8.306;2023-02-21T03:50:10;100417.47;;;2.11;100.00
56671;BME280;42545;50.054;8.306;2023-02-21T03:52:37;100414.16;;;2.14;100.00
56671;BME280;42545;50.054;8.306;2023-02-21T03:55:05;100412.53;;;2.16;100.00
56671;BME280;42545;50.054;8.306;2023-02-21T03:57:34;100409.91;;;2.16;100.00
56671;BME280;42545;50.054;8.306;2023-02-21T04:00:00;100411.00;;;2.20;100.00
56671;BME280;42545;50.054;8.306;2023-02-21T04:02:28;100409.28;;;2.20;100.00
56671;BME280;42545;50.054;8.306;2023-02-21T04:04:54;100407.50;;;2.19;100.00
56671;BME280;42545;50.054;8.306;2023-02-21T04:07:21;100416.91;;;2.17;100.00
56671;BME280;42545;50.054;8.306;2023-02-21T04:09:48;100412.34;;;2.13;100.00
56671;BME280;42545;50.054;8.306;2023-02-21T04:12:16;100419.72;;;2.05;100.00
56671;BME280;42545;50.054;8.306;2023-02-21T04:14:45;100419.41;;;1.99;100.00
56671;BME280;42545;50.054;8.306;2023-02-21T04:17:11;100420.94;;;1.96;100.00
56671;BME280;42545;50.054;8.306;2023-02-21T04:19:39;100425.84;;;1.91;100.00
56671;BME280;42545;50.054;8.306;2023-02-21T04:22:07;100419.34;;;1.83;100.00
56671;BME280;42545;50.054;8.306;2023-02-21T04:24:33;100421.47;;;1.75;100.00
56671;BME280;42545;50.054;8.306;2023-02-21T04:27:00;100418.28;;;1.64;100.00
56671;BME280;42545;50.054;8.306;2023-02-21T04:29:27;100410.75;;;1.54;100.00
56671;BME280;42545;50.054;8.306;2023-02-21T04:31:55;100423.41;;;1.48;100.00
56671;BME280;42545;50.054;8.306;2023-02-21T04:34:22;100419.72;;;1.44;100.00
56671;BME280;42545;50.054;8.306;2023-02-21T04:36:49;100422.22;;;1.43;100.00
56671;BME280;42545;50.054;8.306;2023-02-21T04:39:16;100417.81;;;1.42;100.00
56671;BME280;42545;50.054;8.306;2023-02-21T04:41:43;100416.19;;;1.44;100.00
56671;BME280;42545;50.054;8.306;2023-02-21T04:44:11;100407.31;;;1.40;100.00
56671;BME280;42545;50.054;8.306;2023-02-21T04:46:38;100416.09;;;1.42;100.00
56671;BME280;42545;50.054;8.306;2023-02-21T04:49:06;100412.72;;;1.43;100.00
56671;BME280;42545;50.054;8.306;2023-02-21T04:51:32;100409.31;;;1.44;100.00
56671;BME280;42545;50.054;8.306;2023-02-21T04:53:59;100402.41;;;1.45;100.00
56671;BME280;42545;50.054;8.306;2023-02-21T04:56:25;100402.41;;;1.45;100.00
56671;BME280;42545;50.054;8.306;2023-02-21T04:58:53;100406.72;;;1.44;100.00
56671;BME280;42545;50.054;8.306;2023-02-21T05:01:20;100399.53;;;1.40;100.00
56671;BME280;42545;50.054;8.306;2023-02-21T05:03:47;100403.09;;;1.42;100.00
56671;BME280;42545;50.054;8.306;2023-02-21T05:06:21;100401.25;;;1.40;100.00
56671;BME280;42545;50.054;8.306;2023-02-21T05:08:48;100393.34;;;1.38;100.00
56671;BME280;42545;50.054;8.306;2023-02-21T05:11:17;100393.34;;;1.38;100.00
56671;BME280;42545;50.054;8.306;2023-02-21T05:13:45;100395.84;;;1.37;100.00
56671;BME280;42545;50.054;8.306;2023-02-21T05:16:12;100395.84;;;1.37;100.00
56671;BME280;42545;50.054;8.306;2023-02-21T05:18:40;100394.78;;;1.33;100.00
56671;BME280;42545;50.054;8.306;2023-02-21T05:21:07;100397.22;;;1.30;100.00
56671;BME280;42545;50.054;8.306;2023-02-21T05:23:35;100395.16;;;1.24;100.00
56671;BME280;42545;50.054;8.306;2023-02-21T05:26:06;100400.94;;;1.20;100.00
56671;BME280;42545;50.054;8.306;2023-02-21T05:28:34;100392.91;;;1.15;100.00
56671;BME280;42545;50.054;8.306;2023-02-21T05:31:01;100397.91;;;1.12;100.00
56671;BME280;42545;50.054;8.306;2023-02-21T05:33:28;100392.63;;;1.11;100.00
56671;BME280;42545;50.054;8.306;2023-02-21T05:35:55;100389.22;;;1.12;100.00
56671;BME280;42545;50.054;8.306;2023-02-21T05:38:22;100397.13;;;1.13;100.00
56671;BME280;42545;50.054;8.306;2023-02-21T05:40:51;100407.50;;;1.13;100.00
56671;BME280;42545;50.054;8.306;2023-02-21T05:43:19;100402.13;;;1.10;100.00
56671;BME280;42545;50.054;8.306;2023-02-21T05:45:45;100411.00;;;1.14;100.00
56671;BME280;42545;50.054;8.306;2023-02-21T05:48:12;100407.66;;;1.17;100.00
56671;BME280;42545;50.054;8.306;2023-02-21T05:50:39;100407.75;;;1.18;100.00
56671;BME280;42545;50.054;8.306;2023-02-21T05:53:05;100408.66;;;1.19;100.00
56671;BME280;42545;50.054;8.306;2023-02-21T05:55:34;100412.34;;;1.22;100.00
56671;BME280;42545;50.054;8.306;2023-02-21T05:58:04;100413.34;;;1.24;100.00
56671;BME280;42545;50.054;8.306;2023-02-21T06:00:32;100420.41;;;1.27;100.00
56671;BME280;42545;50.054;8.306;2023-02-21T06:02:59;100414.34;;;1.26;100.00
56671;BME280;42545;50.054;8.306;2023-02-21T06:05:26;100422.22;;;1.28;100.00
56671;BME280;42545;50.054;8.306;2023-02-21T06:07:53;100418.72;;;1.27;100.00
56671;BME280;42545;50.054;8.306;2023-02-21T06:10:19;100416.84;;;1.25;100.00
56671;BME280;42545;50.054;8.306;2023-02-21T06:12:46;100421.75;;;1.20;100.00
56671;BME280;42545;50.054;8.306;2023-02-21T06:15:14;100419.78;;;1.16;100.00
56671;BME280;42545;50.054;8.306;2023-02-21T06:17:43;100424.78;;;1.13;100.00
56671;BME280;42545;50.054;8.306;2023-02-21T06:20:12;100415.75;;;1.06;100.00
56671;BME280;42545;50.054;8.306;2023-02-21T06:22:40;100420.94;;;1.06;100.00
56671;BME280;42545;50.054;8.306;2023-02-21T06:25:08;100417.34;;;1.04;100.00
56671;BME280;42545;50.054;8.306;2023-02-21T06:27:35;100422.63;;;1.06;100.00
56671;BME280;42545;50.054;8.306;2023-02-21T06:30:01;100427.81;;;1.06;100.00
56671;BME280;42545;50.054;8.306;2023-02-21T06:32:30;100426.94;;;1.05;100.00
56671;BME280;42545;50.054;8.306;2023-02-21T06:34:56;100427.03;;;1.07;100.00
56671;BME280;42545;50.054;8.306;2023-02-21T06:37:23;100427.13;;;1.08;100.00
56671;BME280;42545;50.054;8.306;2023-02-21T06:39:50;100425.50;;;1.10;100.00
56671;BME280;42545;50.054;8.306;2023-02-21T06:42:18;100414.22;;;1.10;100.00
56671;BME280;42545;50.054;8.306;2023-02-21T06:44:46;100418.78;;;1.14;100.00
56671;BME280;42545;50.054;8.306;2023-02-21T06:47:15;100426.16;;;1.21;100.00
56671;BME280;42545;50.054;8.306;2023-02-21T06:49:43;100435.56;;;1.19;100.00
56671;BME280;42545;50.054;8.306;2023-02-21T06:52:10;100432.25;;;1.22;100.00
56671;BME280;42545;50.054;8.306;2023-02-21T06:54:37;100433.06;;;1.21;100.00
56671;BME280;42545;50.054;8.306;2023-02-21T06:57:04;100431.34;;;1.21;100.00
56671;BME280;42545;50.054;8.306;2023-02-21T06:59:32;100434.03;;;1.23;100.00
56671;BME280;42545;50.054;8.306;2023-02-21T07:01:59;100429.63;;;1.22;100.00
56671;BME280;42545;50.054;8.306;2023-02-21T07:04:26;100430.47;;;1.21;100.00
56671;BME280;42545;50.054;8.306;2023-02-21T07:06:54;100436.81;;;1.26;100.00
56671;BME280;42545;50.054;8.306;2023-02-21T07:09:21;100429.28;;;1.30;100.00
56671;BME280;42545;50.054;8.306;2023-02-21T07:11:48;100428.75;;;1.36;100.00
56671;BME280;42545;50.054;8.306;2023-02-21T07:14:14;100423.91;;;1.42;100.00
56671;BME280;42545;50.054;8.306;2023-02-21T07:16:41;100422.56;;;1.49;100.00
56671;BME280;42545;50.054;8.306;2023-02-21T07:19:08;100415.84;;;1.52;100.00
56671;BME280;42545;50.054;8.306;2023-02-21T07:21:34;100413.78;;;1.62;100.00
56671;BME280;42545;50.054;8.306;2023-02-21T07:24:02;100413.75;;;1.77;100.00
56671;BME280;42545;50.054;8.306;2023-02-21T07:26:29;100402.91;;;1.84;100.00
56671;BME280;42545;50.054;8.306;2023-02-21T07:28:56;100416.25;;;2.05;100.00
56671;BME280;42545;50.054;8.306;2023-02-21T07:31:22;100415.72;;;2.27;100.00
56671;BME280;42545;50.054;8.306;2023-02-21T07:33:50;100401.84;;;2.43;100.00
56671;BME280;42545;50.054;8.306;2023-02-21T07:36:16;100413.00;;;2.57;100.00
56671;BME280;42545;50.054;8.306;2023-02-21T07:38:43;100400.38;;;2.64;100.00
56671;BME280;42545;50.054;8.306;2023-02-21T07:41:13;100409.59;;;2.74;100.00
56671;BME280;42545;50.054;8.306;2023-02-21T07:43:40;100412.28;;;2.92;100.00
56671;BME280;42545;50.054;8.306;2023-02-21T07:46:09;100401.84;;;3.08;100.00
56671;BME280;42545;50.054;8.306;2023-02-21T07:48:37;100413.34;;;3.30;100.00
56671;BME280;42545;50.054;8.306;2023-02-21T07:51:06;100410.72;;;3.46;100.00
56671;BME280;42545;50.054;8.306;2023-02-21T07:53:33;100415.97;;;3.64;100.00
56671;BME280;42545;50.054;8.306;2023-02-21T07:56:00;100419.56;;;3.84;100.00
56671;BME280;42545;50.054;8.306;2023-02-21T07:58:29;100413.44;;;4.02;100.00
56671;BME280;42545;50.054;8.306;2023-02-21T08:00:56;100423.56;;;4.14;100.00
56671;BME280;42545;50.054;8.306;2023-02-21T08:03:23;100416.72;;;4.16;100.00
56671;BME280;42545;50.054;8.306;2023-02-21T08:05:50;100419.56;;;4.20;100.00
56671;BME280;42545;50.054;8.306;2023-02-21T08:08:17;100413.56;;;4.23;100.00
56671;BME280;42545;50.054;8.306;2023-02-21T08:10:43;100412.97;;;4.29;100.00
56671;BME280;42545;50.054;8.306;2023-02-21T08:13:12;100419.22;;;4.32;100.00
56671;BME280;42545;50.054;8.306;2023-02-21T08:15:40;100414.31;;;4.38;100.00
56671;BME280;42545;50.054;8.306;2023-02-21T08:18:14;100418.84;;;4.42;100.00
56671;BME280;42545;50.054;8.306;2023-02-21T08:20:43;100422.78;;;4.52;100.00
56671;BME280;42545;50.054;8.306;2023-02-21T08:23:14;100417.84;;;4.58;100.00
56671;BME280;42545;50.054;8.306;2023-02-21T08:25:44;100414.81;;;4.69;100.00
56671;BME280;42545;50.054;8.306;2023-02-21T08:28:10;100418.00;;;4.81;100.00
56671;BME280;42545;50.054;8.306;2023-02-21T08:30:37;100418.47;;;4.92;100.00
56671;BME280;42545;50.054;8.306;2023-02-21T08:33:05;100413.66;;;5.01;100.00
56671;BME280;42545;50.054;8.306;2023-02-21T08:35:32;100409.88;;;5.14;100.00
56671;BME280;42545;50.054;8.306;2023-02-21T08:37:58;100401.69;;;5.26;100.00
56671;BME280;42545;50.054;8.306;2023-02-21T08:40:29;100407.16;;;5.53;100.00
56671;BME280;42545;50.054;8.306;2023-02-21T08:42:57;100407.88;;;5.70;100.00
56671;BME280;42545;50.054;8.306;2023-02-21T08:45:25;100404.94;;;5.83;100.00
56671;BME280;42545;50.054;8.306;2023-02-21T08:47:52;100396.44;;;5.89;100.00
56671;BME280;42545;50.054;8.306;2023-02-21T08:50:22;100399.56;;;5.80;100.00
56671;BME280;42545;50.054;8.306;2023-02-21T08:52:50;100402.47;;;5.86;100.00
56671;BME280;42545;50.054;8.306;2023-02-21T08:55:18;100396.44;;;5.89;100.00
56671;BME280;42545;50.054;8.306;2023-02-21T08:57:48;100400.41;;;6.00;100.00
56671;BME280;42545;50.054;8.306;2023-02-21T09:00:16;100392.91;;;6.09;100.00
56671;BME280;42545;50.054;8.306;2023-02-21T09:02:44;100396.63;;;6.14;100.00
56671;BME280;42545;50.054;8.306;2023-02-21T09:05:13;100390.25;;;6.30;100.00
56671;BME280;42545;50.054;8.306;2023-02-21T09:07:42;100397.00;;;6.46;100.00
56671;BME280;42545;50.054;8.306;2023-02-21T09:10:10;100393.00;;;6.56;98.77
56671;BME280;42545;50.054;8.306;2023-02-21T09:12:37;100390.91;;;6.70;98.95
56671;BME280;42545;50.054;8.306;2023-02-21T09:15:06;100396.75;;;6.87;98.33
56671;BME280;42545;50.054;8.306;2023-02-21T09:17:34;100391.50;;;7.11;96.96
56671;BME280;42545;50.054;8.306;2023-02-21T09:20:01;100387.88;;;7.33;97.44
56671;BME280;42545;50.054;8.306;2023-02-21T09:22:30;100378.81;;;7.49;95.85
56671;BME280;42545;50.054;8.306;2023-02-21T09:25:02;100383.88;;;7.70;94.78
56671;BME280;42545;50.054;8.306;2023-02-21T09:27:29;100378.44;;;7.91;94.79
56671;BME280;42545;50.054;8.306;2023-02-21T09:30:04;100384.72;;;8.23;93.20
56671;BME280;42545;50.054;8.306;2023-02-21T09:32:31;100385.19;;;8.39;91.88
56671;BME280;42545;50.054;8.306;2023-02-21T09:34:59;100381.38;;;8.56;90.04
56671;BME280;42545;50.054;8.306;2023-02-21T09:37:26;100381.00;;;8.74;87.50
56671;BME280;42545;50.054;8.306;2023-02-21T09:39:52;100379.25;;;9.05;88.71
56671;BME280;42545;50.054;8.306;2023-02-21T09:42:24;100369.00;;;9.16;86.90
56671;BME280;42545;50.054;8.306;2023-02-21T09:44:54;100372.13;;;9.33;86.52
56671;BME280;42545;50.054;8.306;2023-02-21T09:47:25;100362.84;;;9.49;86.01
56671;BME280;42545;50.054;8.306;2023-02-21T09:49:59;100372.53;;;9.50;83.88
56671;BME280;42545;50.054;8.306;2023-02-21T09:52:30;100372.53;;;9.50;84.63
56671;BME280;42545;50.054;8.306;2023-02-21T09:55:00;100371.56;;;9.46;83.51
56671;BME280;42545;50.054;8.306;2023-02-21T09:57:29;100376.94;;;9.51;83.50
56671;BME280;42545;50.054;8.306;2023-02-21T09:59:56;100371.16;;;9.64;83.21
56671;BME280;42545;50.054;8.306;2023-02-21T10:02:37;100378.47;;;9.76;82.48
56671;BME280;42545;50.054;8.306;2023-02-21T10:05:15;100382.34;;;9.90;81.51
56671;BME280;42545;50.054;8.306;2023-02-21T10:07:46;100381.44;;;9.90;80.82
56671;BME280;42545;50.054;8.306;2023-02-21T10:10:18;100384.75;;;9.81;81.90
56671;BME280;42545;50.054;8.306;2023-02-21T10:12:53;100375.94;;;9.80;81.14
56671;BME280;42545;50.054;8.306;2023-02-21T10:15:39;100374.59;;;9.98;81.73
56671;BME280;42545;50.054;8.306;2023-02-21T10:18:14;100372.44;;;10.18;81.82
56671;BME280;42545;50.054;8.306;2023-02-21T10:20:48;100373.88;;;10.42;81.26
56671;BME280;42545;50.054;8.306;2023-02-21T10:23:21;100364.78;;;10.68;80.55
56671;BME280;42545;50.054;8.306;2023-02-21T10:25:51;100370.69;;;10.99;79.49
56671;BME280;42545;50.054;8.306;2023-02-21T10:28:24;100359.75;;;11.26;77.39
56671;BME280;42545;50.054;8.306;2023-02-21T10:30:53;100365.88;;;11.25;75.19
56671;BME280;42545;50.054;8.306;2023-02-21T10:33:22;100364.06;;;11.21;74.87
56671;BME280;42545;50.054;8.306;2023-02-21T10:35:50;100373.00;;;11.29;76.03
56671;BME280;42545;50.054;8.306;2023-02-21T10:38:22;100371.44;;;11.39;76.13
56671;BME280;42545;50.054;8.306;2023-02-21T10:40:52;100370.03;;;11.60;76.57
56671;BME280;42545;50.054;8.306;2023-02-21T10:43:27;100371.97;;;11.71;74.83
56671;BME280;42545;50.054;8.306;2023-02-21T10:45:59;100373.00;;;11.80;74.94
56671;BME280;42545;50.054;8.306;2023-02-21T10:48:31;100363.31;;;11.80;72.93
56671;BME280;42545;50.054;8.306;2023-02-21T10:51:06;100371.19;;;11.76;73.11
56671;BME280;42545;50.054;8.306;2023-02-21T10:53:34;100374.44;;;11.61;73.06
56671;BME280;42545;50.054;8.306;2023-02-21T10:56:20;100364.03;;;11.68;74.38
56671;BME280;42545;50.054;8.306;2023-02-21T10:58:51;100364.00;;;11.67;72.58
56671;BME280;42545;50.054;8.306;2023-02-21T11:01:20;100364.03;;;11.71;72.59
56671;BME280;42545;50.054;8.306;2023-02-21T11:03:51;100357.22;;;11.84;72.43
56671;BME280;42545;50.054;8.306;2023-02-21T11:06:24;100351.28;;;11.96;72.52
56671;BME280;42545;50.054;8.306;2023-02-21T11:08:52;100346.94;;;12.01;72.10
56671;BME280;42545;50.054;8.306;2023-02-21T11:11:31;100343.66;;;12.19;71.95
56671;BME280;42545;50.054;8.306;2023-02-21T11:14:19;100355.34;;;12.34;70.38
56671;BME280;42545;50.054;8.306;2023-02-21T11:17:03;100346.78;;;12.53;68.58
56671;BME280;42545;50.054;8.306;2023-02-21T11:19:41;100338.22;;;12.73;70.45
56671;BME280;42545;50.054;8.306;2023-02-21T11:22:08;100330.28;;;12.76;69.19
56671;BME280;42545;50.054;8.306;2023-02-21T11:24:44;100327.69;;;12.80;68.05
56671;BME280;42545;50.054;8.306;2023-02-21T11:27:12;100319.75;;;12.79;69.14
56671;BME280;42545;50.054;8.306;2023-02-21T11:29:43;100325.06;;;12.82;66.55
56671;BME280;42545;50.054;8.306;2023-02-21T11:32:11;100320.63;;;12.79;67.91
56671;BME280;42545;50.054;8.306;2023-02-21T11:34:39;100305.75;;;12.92;68.57
56671;BME280;42545;50.054;8.306;2023-02-21T11:37:13;100311.97;;;12.96;66.74
56671;BME280;42545;50.054;8.306;2023-02-21T11:39:49;100302.31;;;12.99;69.33
56671;BME280;42545;50.054;8.306;2023-02-21T11:42:24;100304.19;;;13.10;66.90
56671;BME280;42545;50.054;8.306;2023-02-21T11:45:10;100292.69;;;13.07;66.63
56671;BME280;42545;50.054;8.306;2023-02-21T11:47:45;100292.72;;;13.11;65.93
56671;BME280;42545;50.054;8.306;2023-02-21T11:50:24;100293.53;;;13.03;67.16
56671;BME280;42545;50.054;8.306;2023-02-21T11:52:58;100284.75;;;13.07;66.62
56671;BME280;42545;50.054;8.306;2023-02-21T11:55:27;100284.88;;;13.24;68.09
56671;BME280;42545;50.054;8.306;2023-02-21T11:58:00;100275.31;;;13.37;66.71
56671;BME280;42545;50.054;8.306;2023-02-21T12:00:39;100263.97;;;13.55;66.07
56671;BME280;42545;50.054;8.306;2023-02-21T12:03:26;100264.09;;;13.72;66.26
56671;BME280;42545;50.054;8.306;2023-02-21T12:06:02;100257.94;;;13.79;65.19
56671;BME280;42545;50.054;8.306;2023-02-21T12:08:37;100251.84;;;13.90;63.60
56671;BME280;42545;50.054;8.306;2023-02-21T12:11:15;100252.75;;;13.93;64.62
56671;BME280;42545;50.054;8.306;2023-02-21T12:13:53;100242.19;;;14.04;64.82
56671;BME280;42545;50.054;8.306;2023-02-21T12:16:32;100238.75;;;14.20;64.59
56671;BME280;42545;50.054;8.306;2023-02-21T12:19:14;100234.25;;;14.10;61.96
56671;BME280;42545;50.054;8.306;2023-02-21T12:21:56;100234.28;;;14.18;64.27
56671;BME280;42545;50.054;8.306;2023-02-21T12:24:41;100234.28;;;14.18;63.42
56671;BME280;42545;50.054;8.306;2023-02-21T12:27:16;100229.81;;;14.06;63.28
56671;BME280;42545;50.054;8.306;2023-02-21T12:29:53;100224.50;;;14.03;63.87
56671;BME280;42545;50.054;8.306;2023-02-21T12:32:40;100223.66;;;14.18;62.87
56671;BME280;42545;50.054;8.306;2023-02-21T12:35:36;100224.53;;;14.14;63.08
56671;BME280;42545;50.054;8.306;2023-02-21T12:38:12;100221.03;;;14.19;65.05
56671;BME280;42545;50.054;8.306;2023-02-21T12:40:49;100214.91;;;14.36;63.65
56671;BME280;42545;50.054;8.306;2023-02-21T12:43:28;100215.81;;;14.47;63.67
56671;BME280;42545;50.054;8.306;2023-02-21T12:46:04;100213.16;;;14.44;62.93
56671;BME280;42545;50.054;8.306;2023-02-21T12:48:42;100211.38;;;14.49;62.71
56671;BME280;42545;50.054;8.306;2023-02-21T12:51:17;100208.72;;;14.40;62.42
56671;BME280;42545;50.054;8.306;2023-02-21T12:53:50;100205.19;;;14.41;62.09
56671;BME280;42545;50.054;8.306;2023-02-21T12:56:26;100198.13;;;14.49;63.52
56671;BME280;42545;50.054;8.306;2023-02-21T12:58:57;100201.69;;;14.50;62.40
56671;BME280;42545;50.054;8.306;2023-02-21T13:01:30;100190.19;;;14.54;62.24
56671;BME280;42545;50.054;8.306;2023-02-21T13:04:09;100183.97;;;14.50;60.83
56671;BME280;42545;50.054;8.306;2023-02-21T13:06:44;100172.47;;;14.48;62.49
56671;BME280;42545;50.054;8.306;2023-02-21T13:09:19;100164.50;;;14.47;63.11
56671;BME280;42545;50.054;8.306;2023-02-21T13:11:54;100175.13;;;14.47;62.34
56671;BME280;42545;50.054;8.306;2023-02-21T13:14:41;100156.50;;;14.34;62.41
56671;BME280;42545;50.054;8.306;2023-02-21T13:17:13;100163.59;;;14.35;64.09
56671;BME280;42545;50.054;8.306;2023-02-21T13:19:44;100150.31;;;14.41;63.00
56671;BME280;42545;50.054;8.306;2023-02-21T13:22:30;100160.06;;;14.44;63.07
56671;BME280;42545;50.054;8.306;2023-02-21T13:25:20;100152.09;;;14.47;62.98